sensor_id;sensor_type;location;lat;lon;timestamp;P1;durP1;ratioP1;P2;durP2;ratioP2
31910;SDS011;18457;52.432;16.914;2023-03-18T00:01:13;43.40;;;20.20;;
31910;SDS011;18457;52.432;16.914;2023-03-18T00:03:46;31.70;;;15.60;;
31910;SDS011;18457;52.432;16.914;2023-03-18T00:06:18;43.40;;;20.50;;
31910;SDS011;18457;52.432;16.914;2023-03-18T00:11:22;43.20;;;19.70;;
31910;SDS011;18457;52.432;16.914;2023-03-18T00:13:55;39.40;;;19.10;;
31910;SDS011;18457;52.432;16.914;2023-03-18T00:16:27;49.50;;;20.60;;
31910;SDS011;18457;52.432;16.914;2023-03-18T00:18:59;42.00;;;20.30;;
31910;SDS011;18457;52.432;16.914;2023-03-18T00:21:32;38.40;;;18.80;;
31910;SDS011;18457;52.432;16.914;2023-03-18T00:24:04;46.80;;;20.20;;
31910;SDS011;18457;52.432;16.914;2023-03-18T00:26:36;42.90;;;19.40;;
31910;SDS011;18457;52.432;16.914;2023-03-18T00:29:08;41.80;;;20.40;;
31910;SDS011;18457;52.432;16.914;2023-03-18T00:31:40;29.50;;;14.50;;
31910;SDS011;18457;52.432;16.914;2023-03-18T00:36:44;40.50;;;18.90;;
31910;SDS011;18457;52.432;16.914;2023-03-18T00:39:18;41.80;;;19.00;;
31910;SDS011;18457;52.432;16.914;2023-03-18T00:41:56;46.20;;;20.60;;
31910;SDS011;18457;52.432;16.914;2023-03-18T00:44:30;38.30;;;18.20;;
31910;SDS011;18457;52.432;16.914;2023-03-18T00:47:02;42.60;;;19.80;;
31910;SDS011;18457;52.432;16.914;2023-03-18T00:49:35;48.10;;;19.40;;
31910;SDS011;18457;52.432;16.914;2023-03-18T00:52:07;46.20;;;19.00;;
31910;SDS011;18457;52.432;16.914;2023-03-18T00:54:39;31.60;;;12.70;;
31910;SDS011;18457;52.432;16.914;2023-03-18T00:57:11;41.00;;;17.90;;
31910;SDS011;18457;52.432;16.914;2023-03-18T00:59:43;41.30;;;19.00;;
31910;SDS011;18457;52.432;16.914;2023-03-18T01:02:16;37.30;;;18.30;;
31910;SDS011;18457;52.432;16.914;2023-03-18T01:04:48;39.30;;;18.50;;
31910;SDS011;18457;52.432;16.914;2023-03-18T01:09:52;38.00;;;17.40;;
31910;SDS011;18457;52.432;16.914;2023-03-18T01:12:25;40.40;;;18.90;;
31910;SDS011;18457;52.432;16.914;2023-03-18T01:14:57;41.20;;;17.80;;
31910;SDS011;18457;52.432;16.914;2023-03-18T01:17:29;25.40;;;12.40;;
31910;SDS011;18457;52.432;16.914;2023-03-18T01:20:01;36.50;;;17.50;;
31910;SDS011;18457;52.432;16.914;2023-03-18T01:22:34;38.70;;;17.80;;
31910;SDS011;18457;52.432;16.914;2023-03-18T01:25:08;39.40;;;18.40;;
31910;SDS011;18457;52.432;16.914;2023-03-18T01:27:41;45.80;;;17.70;;
31910;SDS011;18457;52.432;16.914;2023-03-18T01:30:14;37.00;;;18.30;;
31910;SDS011;18457;52.432;16.914;2023-03-18T01:32:47;35.40;;;17.00;;
31910;SDS011;18457;52.432;16.914;2023-03-18T01:35:20;39.80;;;18.60;;
31910;SDS011;18457;52.432;16.914;2023-03-18T01:37:53;41.00;;;17.60;;
31910;SDS011;18457;52.432;16.914;2023-03-18T01:40:26;36.50;;;17.20;;
31910;SDS011;18457;52.432;16.914;2023-03-18T01:43:14;39.80;;;18.00;;
31910;SDS011;18457;52.432;16.914;2023-03-18T01:45:50;36.10;;;18.90;;
31910;SDS011;18457;52.432;16.914;2023-03-18T01:48:24;41.30;;;17.90;;
31910;SDS011;18457;52.432;16.914;2023-03-18T01:51:03;45.00;;;18.00;;
31910;SDS011;18457;52.432;16.914;2023-03-18T01:53:39;42.90;;;19.00;;
31910;SDS011;18457;52.432;16.914;2023-03-18T01:56:14;40.80;;;18.40;;
31910;SDS011;18457;52.432;16.914;2023-03-18T01:58:48;37.30;;;17.30;;
31910;SDS011;18457;52.432;16.914;2023-03-18T02:01:25;40.60;;;17.90;;
31910;SDS011;18457;52.432;16.914;2023-03-18T02:04:03;38.90;;;17.80;;
31910;SDS011;18457;52.432;16.914;2023-03-18T02:06:39;37.90;;;17.00;;
31910;SDS011;18457;52.432;16.914;2023-03-18T02:09:11;40.70;;;19.10;;
31910;SDS011;18457;52.432;16.914;2023-03-18T02:11:45;41.00;;;17.90;;
31910;SDS011;18457;52.432;16.914;2023-03-18T02:14:20;40.90;;;18.90;;
31910;SDS011;18457;52.432;16.914;2023-03-18T02:16:57;37.50;;;18.00;;
31910;SDS011;18457;52.432;16.914;2023-03-18T02:19:38;34.20;;;17.00;;
31910;SDS011;18457;52.432;16.914;2023-03-18T02:22:23;33.20;;;17.00;;
31910;SDS011;18457;52.432;16.914;2023-03-18T02:25:03;40.10;;;17.60;;
31910;SDS011;18457;52.432;16.914;2023-03-18T02:27:42;40.40;;;18.60;;
31910;SDS011;18457;52.432;16.914;2023-03-18T02:30:20;38.80;;;18.30;;
31910;SDS011;18457;52.432;16.914;2023-03-18T02:32:55;44.30;;;19.10;;
31910;SDS011;18457;52.432;16.914;2023-03-18T02:35:29;42.30;;;17.90;;
31910;SDS011;18457;52.432;16.914;2023-03-18T02:38:03;38.40;;;18.40;;
31910;SDS011;18457;52.432;16.914;2023-03-18T02:40:36;34.00;;;17.60;;
31910;SDS011;18457;52.432;16.914;2023-03-18T02:43:19;34.40;;;16.80;;
31910;SDS011;18457;52.432;16.914;2023-03-18T02:48:59;43.00;;;18.20;;
31910;SDS011;18457;52.432;16.914;2023-03-18T02:51:35;36.30;;;17.70;;
31910;SDS011;18457;52.432;16.914;2023-03-18T02:54:08;44.40;;;18.40;;
31910;SDS011;18457;52.432;16.914;2023-03-18T02:56:41;42.10;;;18.20;;
31910;SDS011;18457;52.432;16.914;2023-03-18T02:59:14;41.50;;;21.20;;
31910;SDS011;18457;52.432;16.914;2023-03-18T03:01:48;42.20;;;21.30;;
31910;SDS011;18457;52.432;16.914;2023-03-18T03:04:23;44.50;;;22.20;;
31910;SDS011;18457;52.432;16.914;2023-03-18T03:06:56;50.40;;;22.10;;
31910;SDS011;18457;52.432;16.914;2023-03-18T03:09:36;42.90;;;20.20;;
31910;SDS011;18457;52.432;16.914;2023-03-18T03:12:10;39.90;;;18.50;;
31910;SDS011;18457;52.432;16.914;2023-03-18T03:14:46;37.20;;;18.00;;
31910;SDS011;18457;52.432;16.914;2023-03-18T03:17:18;35.30;;;13.30;;
31910;SDS011;18457;52.432;16.914;2023-03-18T03:19:51;33.00;;;17.10;;
31910;SDS011;18457;52.432;16.914;2023-03-18T03:22:23;36.20;;;16.00;;
31910;SDS011;18457;52.432;16.914;2023-03-18T03:24:55;34.60;;;16.50;;
31910;SDS011;18457;52.432;16.914;2023-03-18T03:27:27;45.40;;;19.20;;
31910;SDS011;18457;52.432;16.914;2023-03-18T03:29:59;37.00;;;16.50;;
31910;SDS011;18457;52.432;16.914;2023-03-18T03:32:31;40.80;;;17.40;;
31910;SDS011;18457;52.432;16.914;2023-03-18T03:35:03;33.10;;;17.90;;
31910;SDS011;18457;52.432;16.914;2023-03-18T03:37:37;40.40;;;17.00;;
31910;SDS011;18457;52.432;16.914;2023-03-18T03:40:11;34.90;;;16.60;;
31910;SDS011;18457;52.432;16.914;2023-03-18T03:42:45;37.60;;;18.00;;
31910;SDS011;18457;52.432;16.914;2023-03-18T03:45:18;30.90;;;16.20;;
31910;SDS011;18457;52.432;16.914;2023-03-18T03:50:21;35.10;;;16.90;;
31910;SDS011;18457;52.432;16.914;2023-03-18T03:52:53;30.20;;;15.40;;
31910;SDS011;18457;52.432;16.914;2023-03-18T03:55:27;31.30;;;15.90;;
31910;SDS011;18457;52.432;16.914;2023-03-18T03:57:59;28.40;;;11.80;;
31910;SDS011;18457;52.432;16.914;2023-03-18T04:03:02;31.20;;;16.90;;
31910;SDS011;18457;52.432;16.914;2023-03-18T04:05:34;38.10;;;16.00;;
31910;SDS011;18457;52.432;16.914;2023-03-18T04:08:06;34.10;;;15.30;;
31910;SDS011;18457;52.432;16.914;2023-03-18T04:10:40;37.30;;;16.20;;
31910;SDS011;18457;52.432;16.914;2023-03-18T04:13:11;34.10;;;17.60;;
31910;SDS011;18457;52.432;16.914;2023-03-18T04:15:43;30.30;;;12.60;;
31910;SDS011;18457;52.432;16.914;2023-03-18T04:18:18;39.70;;;17.10;;
31910;SDS011;18457;52.432;16.914;2023-03-18T04:20:50;27.70;;;13.00;;
31910;SDS011;18457;52.432;16.914;2023-03-18T04:23:37;34.10;;;16.50;;
31910;SDS011;18457;52.432;16.914;2023-03-18T04:26:08;29.90;;;13.70;;
31910;SDS011;18457;52.432;16.914;2023-03-18T04:28:41;26.60;;;11.70;;
31910;SDS011;18457;52.432;16.914;2023-03-18T04:31:15;32.90;;;15.10;;
31910;SDS011;18457;52.432;16.914;2023-03-18T04:33:47;61.40;;;17.60;;
31910;SDS011;18457;52.432;16.914;2023-03-18T04:36:19;26.70;;;12.10;;
31910;SDS011;18457;52.432;16.914;2023-03-18T04:38:52;26.30;;;14.40;;
31910;SDS011;18457;52.432;16.914;2023-03-18T04:41:25;38.90;;;15.80;;
31910;SDS011;18457;52.432;16.914;2023-03-18T04:43:58;31.90;;;15.40;;
31910;SDS011;18457;52.432;16.914;2023-03-18T04:46:38;33.10;;;15.90;;
31910;SDS011;18457;52.432;16.914;2023-03-18T04:49:10;30.70;;;14.70;;
31910;SDS011;18457;52.432;16.914;2023-03-18T04:51:42;23.50;;;11.30;;
31910;SDS011;18457;52.432;16.914;2023-03-18T04:54:22;31.40;;;15.80;;
31910;SDS011;18457;52.432;16.914;2023-03-18T04:56:55;35.70;;;16.90;;
31910;SDS011;18457;52.432;16.914;2023-03-18T04:59:27;31.20;;;15.20;;
31910;SDS011;18457;52.432;16.914;2023-03-18T05:02:02;32.30;;;14.50;;
31910;SDS011;18457;52.432;16.914;2023-03-18T05:04:35;29.00;;;14.70;;
31910;SDS011;18457;52.432;16.914;2023-03-18T05:07:08;31.80;;;14.80;;
31910;SDS011;18457;52.432;16.914;2023-03-18T05:09:41;36.00;;;15.10;;
31910;SDS011;18457;52.432;16.914;2023-03-18T05:12:13;22.10;;;11.20;;
31910;SDS011;18457;52.432;16.914;2023-03-18T05:14:46;31.50;;;15.00;;
31910;SDS011;18457;52.432;16.914;2023-03-18T05:17:18;31.60;;;15.20;;
31910;SDS011;18457;52.432;16.914;2023-03-18T05:19:56;31.80;;;14.40;;
31910;SDS011;18457;52.432;16.914;2023-03-18T05:22:29;29.20;;;14.50;;
31910;SDS011;18457;52.432;16.914;2023-03-18T05:25:08;33.10;;;15.60;;
31910;SDS011;18457;52.432;16.914;2023-03-18T05:27:41;32.00;;;15.40;;
31910;SDS011;18457;52.432;16.914;2023-03-18T05:30:19;31.40;;;15.50;;
31910;SDS011;18457;52.432;16.914;2023-03-18T05:32:54;31.20;;;14.80;;
31910;SDS011;18457;52.432;16.914;2023-03-18T05:35:42;25.90;;;14.10;;
31910;SDS011;18457;52.432;16.914;2023-03-18T05:38:15;27.20;;;14.50;;
31910;SDS011;18457;52.432;16.914;2023-03-18T05:40:47;26.50;;;14.00;;
31910;SDS011;18457;52.432;16.914;2023-03-18T05:43:23;32.30;;;14.70;;
31910;SDS011;18457;52.432;16.914;2023-03-18T05:45:58;27.00;;;13.60;;
31910;SDS011;18457;52.432;16.914;2023-03-18T05:48:38;29.50;;;14.60;;
31910;SDS011;18457;52.432;16.914;2023-03-18T05:51:12;35.60;;;14.50;;
31910;SDS011;18457;52.432;16.914;2023-03-18T05:53:44;29.00;;;14.60;;
31910;SDS011;18457;52.432;16.914;2023-03-18T05:56:22;30.70;;;13.60;;
31910;SDS011;18457;52.432;16.914;2023-03-18T05:58:57;31.50;;;14.10;;
31910;SDS011;18457;52.432;16.914;2023-03-18T06:01:36;28.60;;;14.70;;
31910;SDS011;18457;52.432;16.914;2023-03-18T06:04:09;32.00;;;14.70;;
31910;SDS011;18457;52.432;16.914;2023-03-18T06:09:13;30.30;;;14.20;;
31910;SDS011;18457;52.432;16.914;2023-03-18T06:11:46;31.30;;;13.60;;
31910;SDS011;18457;52.432;16.914;2023-03-18T06:14:18;35.90;;;15.40;;
31910;SDS011;18457;52.432;16.914;2023-03-18T06:16:51;30.20;;;13.70;;
31910;SDS011;18457;52.432;16.914;2023-03-18T06:19:23;29.20;;;13.30;;
31910;SDS011;18457;52.432;16.914;2023-03-18T06:24:26;31.50;;;12.90;;
31910;SDS011;18457;52.432;16.914;2023-03-18T06:27:00;25.40;;;13.40;;
31910;SDS011;18457;52.432;16.914;2023-03-18T06:29:34;34.10;;;13.90;;
31910;SDS011;18457;52.432;16.914;2023-03-18T06:32:10;30.30;;;13.20;;
31910;SDS011;18457;52.432;16.914;2023-03-18T06:34:42;32.20;;;13.20;;
31910;SDS011;18457;52.432;16.914;2023-03-18T06:37:14;19.70;;;11.50;;
31910;SDS011;18457;52.432;16.914;2023-03-18T06:39:46;32.10;;;13.00;;
31910;SDS011;18457;52.432;16.914;2023-03-18T06:42:18;28.60;;;14.20;;
31910;SDS011;18457;52.432;16.914;2023-03-18T06:44:57;32.20;;;14.50;;
31910;SDS011;18457;52.432;16.914;2023-03-18T06:47:41;25.80;;;12.70;;
31910;SDS011;18457;52.432;16.914;2023-03-18T06:50:14;29.00;;;12.70;;
31910;SDS011;18457;52.432;16.914;2023-03-18T06:52:46;27.10;;;12.90;;
31910;SDS011;18457;52.432;16.914;2023-03-18T06:55:21;30.70;;;13.40;;
31910;SDS011;18457;52.432;16.914;2023-03-18T06:57:53;25.00;;;13.50;;
31910;SDS011;18457;52.432;16.914;2023-03-18T07:00:31;26.30;;;13.00;;
31910;SDS011;18457;52.432;16.914;2023-03-18T07:03:05;28.40;;;12.30;;
31910;SDS011;18457;52.432;16.914;2023-03-18T07:05:37;30.60;;;14.80;;
31910;SDS011;18457;52.432;16.914;2023-03-18T07:08:11;28.10;;;13.30;;
31910;SDS011;18457;52.432;16.914;2023-03-18T07:10:43;29.70;;;13.80;;
31910;SDS011;18457;52.432;16.914;2023-03-18T07:15:47;28.20;;;13.10;;
31910;SDS011;18457;52.432;16.914;2023-03-18T07:18:19;31.70;;;13.40;;
31910;SDS011;18457;52.432;16.914;2023-03-18T07:20:51;28.00;;;13.50;;
31910;SDS011;18457;52.432;16.914;2023-03-18T07:23:24;20.30;;;11.70;;
31910;SDS011;18457;52.432;16.914;2023-03-18T07:25:58;23.90;;;12.30;;
31910;SDS011;18457;52.432;16.914;2023-03-18T07:28:30;30.50;;;12.20;;
31910;SDS011;18457;52.432;16.914;2023-03-18T07:31:02;29.90;;;12.50;;
31910;SDS011;18457;52.432;16.914;2023-03-18T07:33:34;20.70;;;10.90;;
31910;SDS011;18457;52.432;16.914;2023-03-18T07:36:06;29.10;;;12.90;;
31910;SDS011;18457;52.432;16.914;2023-03-18T07:38:39;24.50;;;11.80;;
31910;SDS011;18457;52.432;16.914;2023-03-18T07:41:11;26.40;;;12.20;;
31910;SDS011;18457;52.432;16.914;2023-03-18T07:43:43;29.70;;;12.70;;
31910;SDS011;18457;52.432;16.914;2023-03-18T07:46:17;21.90;;;11.30;;
31910;SDS011;18457;52.432;16.914;2023-03-18T07:48:49;24.50;;;11.70;;
31910;SDS011;18457;52.432;16.914;2023-03-18T07:51:20;22.30;;;12.00;;
31910;SDS011;18457;52.432;16.914;2023-03-18T07:53:53;30.10;;;11.80;;
31910;SDS011;18457;52.432;16.914;2023-03-18T07:56:25;21.40;;;10.70;;
31910;SDS011;18457;52.432;16.914;2023-03-18T07:58:57;24.10;;;11.40;;
31910;SDS011;18457;52.432;16.914;2023-03-18T08:01:29;24.00;;;11.40;;
31910;SDS011;18457;52.432;16.914;2023-03-18T08:04:01;24.30;;;11.30;;
31910;SDS011;18457;52.432;16.914;2023-03-18T08:06:34;22.40;;;11.20;;
31910;SDS011;18457;52.432;16.914;2023-03-18T08:09:07;21.10;;;10.40;;
31910;SDS011;18457;52.432;16.914;2023-03-18T08:11:39;22.00;;;10.90;;
31910;SDS011;18457;52.432;16.914;2023-03-18T08:14:11;21.50;;;10.10;;
31910;SDS011;18457;52.432;16.914;2023-03-18T08:16:43;20.20;;;10.00;;
31910;SDS011;18457;52.432;16.914;2023-03-18T08:19:15;14.90;;;7.30;;
31910;SDS011;18457;52.432;16.914;2023-03-18T08:21:47;16.70;;;9.10;;
31910;SDS011;18457;52.432;16.914;2023-03-18T08:24:19;18.00;;;9.10;;
31910;SDS011;18457;52.432;16.914;2023-03-18T08:26:52;18.70;;;9.30;;
31910;SDS011;18457;52.432;16.914;2023-03-18T08:29:24;11.20;;;6.50;;
31910;SDS011;18457;52.432;16.914;2023-03-18T08:31:56;10.20;;;6.10;;
31910;SDS011;18457;52.432;16.914;2023-03-18T08:34:28;14.20;;;8.60;;
31910;SDS011;18457;52.432;16.914;2023-03-18T08:37:00;18.00;;;9.60;;
31910;SDS011;18457;52.432;16.914;2023-03-18T08:39:33;14.90;;;9.10;;
31910;SDS011;18457;52.432;16.914;2023-03-18T08:42:05;17.80;;;8.50;;
31910;SDS011;18457;52.432;16.914;2023-03-18T08:44:38;14.60;;;8.60;;
31910;SDS011;18457;52.432;16.914;2023-03-18T08:47:11;15.50;;;8.20;;
31910;SDS011;18457;52.432;16.914;2023-03-18T08:49:43;15.00;;;7.70;;
31910;SDS011;18457;52.432;16.914;2023-03-18T08:52:18;14.90;;;7.90;;
31910;SDS011;18457;52.432;16.914;2023-03-18T08:54:50;15.00;;;7.80;;
31910;SDS011;18457;52.432;16.914;2023-03-18T08:57:22;11.50;;;5.90;;
31910;SDS011;18457;52.432;16.914;2023-03-18T08:59:56;18.20;;;7.80;;
31910;SDS011;18457;52.432;16.914;2023-03-18T09:02:28;11.80;;;6.20;;
31910;SDS011;18457;52.432;16.914;2023-03-18T09:05:00;14.90;;;8.20;;
31910;SDS011;18457;52.432;16.914;2023-03-18T09:07:32;15.80;;;7.90;;
31910;SDS011;18457;52.432;16.914;2023-03-18T09:10:04;16.10;;;8.10;;
31910;SDS011;18457;52.432;16.914;2023-03-18T09:12:38;16.00;;;8.20;;
31910;SDS011;18457;52.432;16.914;2023-03-18T09:15:11;16.90;;;9.00;;
31910;SDS011;18457;52.432;16.914;2023-03-18T09:17:44;21.20;;;8.80;;
31910;SDS011;18457;52.432;16.914;2023-03-18T09:20:36;21.10;;;8.50;;
31910;SDS011;18457;52.432;16.914;2023-03-18T09:23:09;18.70;;;9.00;;
31910;SDS011;18457;52.432;16.914;2023-03-18T09:25:42;16.20;;;8.90;;
31910;SDS011;18457;52.432;16.914;2023-03-18T09:28:15;18.60;;;8.40;;
31910;SDS011;18457;52.432;16.914;2023-03-18T09:30:47;17.70;;;9.30;;
31910;SDS011;18457;52.432;16.914;2023-03-18T09:33:19;12.00;;;5.80;;
31910;SDS011;18457;52.432;16.914;2023-03-18T09:35:51;20.80;;;10.00;;
31910;SDS011;18457;52.432;16.914;2023-03-18T09:38:23;21.60;;;8.70;;
31910;SDS011;18457;52.432;16.914;2023-03-18T09:41:00;17.30;;;8.90;;
31910;SDS011;18457;52.432;16.914;2023-03-18T09:43:38;20.70;;;9.00;;
31910;SDS011;18457;52.432;16.914;2023-03-18T09:46:22;18.60;;;8.10;;
31910;SDS011;18457;52.432;16.914;2023-03-18T09:49:04;20.80;;;8.20;;
31910;SDS011;18457;52.432;16.914;2023-03-18T09:52:05;20.00;;;8.10;;
31910;SDS011;18457;52.432;16.914;2023-03-18T09:54:48;17.50;;;8.20;;
31910;SDS011;18457;52.432;16.914;2023-03-18T09:57:27;15.00;;;8.30;;
31910;SDS011;18457;52.432;16.914;2023-03-18T10:00:04;16.00;;;8.00;;
31910;SDS011;18457;52.432;16.914;2023-03-18T10:02:46;20.70;;;9.00;;
31910;SDS011;18457;52.432;16.914;2023-03-18T10:05:22;20.10;;;8.70;;
31910;SDS011;18457;52.432;16.914;2023-03-18T10:08:01;15.80;;;9.00;;
31910;SDS011;18457;52.432;16.914;2023-03-18T10:10:37;18.20;;;8.70;;
31910;SDS011;18457;52.432;16.914;2023-03-18T10:13:15;19.60;;;8.10;;
31910;SDS011;18457;52.432;16.914;2023-03-18T10:15:53;16.80;;;8.50;;
31910;SDS011;18457;52.432;16.914;2023-03-18T10:18:28;16.30;;;7.80;;
31910;SDS011;18457;52.432;16.914;2023-03-18T10:21:10;14.10;;;7.50;;
31910;SDS011;18457;52.432;16.914;2023-03-18T10:23:51;14.60;;;7.40;;
31910;SDS011;18457;52.432;16.914;2023-03-18T10:26:34;20.40;;;9.30;;
31910;SDS011;18457;52.432;16.914;2023-03-18T10:29:19;17.40;;;9.00;;
31910;SDS011;18457;52.432;16.914;2023-03-18T10:32:07;14.00;;;7.90;;
31910;SDS011;18457;52.432;16.914;2023-03-18T10:34:54;14.50;;;8.40;;
31910;SDS011;18457;52.432;16.914;2023-03-18T10:37:38;21.40;;;8.40;;
31910;SDS011;18457;52.432;16.914;2023-03-18T10:40:18;16.70;;;8.60;;
31910;SDS011;18457;52.432;16.914;2023-03-18T10:42:53;17.00;;;8.50;;
31910;SDS011;18457;52.432;16.914;2023-03-18T10:45:27;18.70;;;9.10;;
31910;SDS011;18457;52.432;16.914;2023-03-18T10:48:03;17.20;;;8.10;;
31910;SDS011;18457;52.432;16.914;2023-03-18T10:50:41;14.20;;;8.90;;
31910;SDS011;18457;52.432;16.914;2023-03-18T10:53:18;16.40;;;9.00;;
31910;SDS011;18457;52.432;16.914;2023-03-18T10:55:56;18.10;;;9.00;;
31910;SDS011;18457;52.432;16.914;2023-03-18T10:58:35;15.20;;;8.60;;
31910;SDS011;18457;52.432;16.914;2023-03-18T11:01:09;18.30;;;8.50;;
31910;SDS011;18457;52.432;16.914;2023-03-18T11:03:48;15.20;;;8.20;;
31910;SDS011;18457;52.432;16.914;2023-03-18T11:06:25;20.30;;;8.90;;
31910;SDS011;18457;52.432;16.914;2023-03-18T11:09:05;19.20;;;8.40;;
31910;SDS011;18457;52.432;16.914;2023-03-18T11:11:41;16.30;;;9.50;;
31910;SDS011;18457;52.432;16.914;2023-03-18T11:14:14;15.80;;;8.70;;
31910;SDS011;18457;52.432;16.914;2023-03-18T11:16:50;13.40;;;8.10;;
31910;SDS011;18457;52.432;16.914;2023-03-18T11:19:29;17.40;;;8.80;;
31910;SDS011;18457;52.432;16.914;2023-03-18T11:22:14;13.80;;;8.60;;
31910;SDS011;18457;52.432;16.914;2023-03-18T11:25:04;20.20;;;7.90;;
31910;SDS011;18457;52.432;16.914;2023-03-18T11:27:45;16.20;;;7.90;;
31910;SDS011;18457;52.432;16.914;2023-03-18T11:30:20;15.30;;;8.60;;
31910;SDS011;18457;52.432;16.914;2023-03-18T11:33:04;14.10;;;8.40;;
31910;SDS011;18457;52.432;16.914;2023-03-18T11:35:44;18.20;;;9.30;;
31910;SDS011;18457;52.432;16.914;2023-03-18T11:38:23;20.20;;;8.90;;
31910;SDS011;18457;52.432;16.914;2023-03-18T11:41:06;22.80;;;10.40;;
31910;SDS011;18457;52.432;16.914;2023-03-18T11:43:53;19.00;;;9.60;;
31910;SDS011;18457;52.432;16.914;2023-03-18T11:46:28;19.20;;;9.00;;
31910;SDS011;18457;52.432;16.914;2023-03-18T11:49:07;20.00;;;7.40;;
31910;SDS011;18457;52.432;16.914;2023-03-18T11:51:43;19.80;;;9.40;;
31910;SDS011;18457;52.432;16.914;2023-03-18T11:54:30;17.90;;;9.40;;
31910;SDS011;18457;52.432;16.914;2023-03-18T11:57:14;17.00;;;8.70;;
31910;SDS011;18457;52.432;16.914;2023-03-18T11:59:56;16.00;;;9.20;;
31910;SDS011;18457;52.432;16.914;2023-03-18T12:02:40;17.90;;;8.60;;
31910;SDS011;18457;52.432;16.914;2023-03-18T12:05:31;18.20;;;8.60;;
31910;SDS011;18457;52.432;16.914;2023-03-18T12:08:22;19.90;;;8.80;;
31910;SDS011;18457;52.432;16.914;2023-03-18T12:11:03;16.70;;;9.20;;
31910;SDS011;18457;52.432;16.914;2023-03-18T12:13:45;19.50;;;9.10;;
31910;SDS011;18457;52.432;16.914;2023-03-18T12:16:38;25.40;;;8.90;;
31910;SDS011;18457;52.432;16.914;2023-03-18T12:19:24;15.30;;;8.50;;
31910;SDS011;18457;52.432;16.914;2023-03-18T12:22:13;15.00;;;8.80;;
31910;SDS011;18457;52.432;16.914;2023-03-18T12:25:19;20.90;;;9.30;;
31910;SDS011;18457;52.432;16.914;2023-03-18T12:28:01;14.50;;;8.40;;
31910;SDS011;18457;52.432;16.914;2023-03-18T12:30:54;18.30;;;8.90;;
31910;SDS011;18457;52.432;16.914;2023-03-18T12:33:40;16.80;;;9.40;;
31910;SDS011;18457;52.432;16.914;2023-03-18T12:36:24;16.20;;;8.60;;
31910;SDS011;18457;52.432;16.914;2023-03-18T12:42:25;17.30;;;8.80;;
31910;SDS011;18457;52.432;16.914;2023-03-18T12:45:09;19.00;;;9.30;;
31910;SDS011;18457;52.432;16.914;2023-03-18T12:47:45;21.70;;;8.80;;
31910;SDS011;18457;52.432;16.914;2023-03-18T12:50:23;19.90;;;9.50;;
31910;SDS011;18457;52.432;16.914;2023-03-18T12:53:02;23.40;;;9.00;;
31910;SDS011;18457;52.432;16.914;2023-03-18T12:55:44;20.80;;;9.70;;
31910;SDS011;18457;52.432;16.914;2023-03-18T12:58:23;18.10;;;9.20;;
31910;SDS011;18457;52.432;16.914;2023-03-18T13:00:58;20.00;;;9.30;;
31910;SDS011;18457;52.432;16.914;2023-03-18T13:03:35;23.10;;;9.70;;
31910;SDS011;18457;52.432;16.914;2023-03-18T13:06:10;19.80;;;9.60;;
31910;SDS011;18457;52.432;16.914;2023-03-18T13:08:49;19.70;;;9.50;;
31910;SDS011;18457;52.432;16.914;2023-03-18T13:11:33;19.60;;;10.40;;
31910;SDS011;18457;52.432;16.914;2023-03-18T13:14:15;17.80;;;9.80;;
31910;SDS011;18457;52.432;16.914;2023-03-18T13:16:54;19.10;;;9.90;;
31910;SDS011;18457;52.432;16.914;2023-03-18T13:19:27;16.20;;;9.10;;
31910;SDS011;18457;52.432;16.914;2023-03-18T13:22:02;18.20;;;10.10;;
31910;SDS011;18457;52.432;16.914;2023-03-18T13:24:48;20.10;;;8.00;;
31910;SDS011;18457;52.432;16.914;2023-03-18T13:27:33;17.00;;;8.70;;
31910;SDS011;18457;52.432;16.914;2023-03-18T13:30:17;20.50;;;8.20;;
31910;SDS011;18457;52.432;16.914;2023-03-18T13:33:01;13.80;;;6.20;;
31910;SDS011;18457;52.432;16.914;2023-03-18T13:35:55;12.80;;;6.10;;
31910;SDS011;18457;52.432;16.914;2023-03-18T13:38:44;15.30;;;7.00;;
31910;SDS011;18457;52.432;16.914;2023-03-18T13:41:38;16.40;;;6.80;;
31910;SDS011;18457;52.432;16.914;2023-03-18T13:44:34;11.80;;;7.70;;
31910;SDS011;18457;52.432;16.914;2023-03-18T13:47:13;16.80;;;8.50;;
31910;SDS011;18457;52.432;16.914;2023-03-18T13:49:47;11.90;;;7.40;;
31910;SDS011;18457;52.432;16.914;2023-03-18T13:52:31;14.50;;;8.20;;
31910;SDS011;18457;52.432;16.914;2023-03-18T13:55:15;17.30;;;9.10;;
31910;SDS011;18457;52.432;16.914;2023-03-18T13:57:56;15.50;;;9.30;;
31910;SDS011;18457;52.432;16.914;2023-03-18T14:05:51;17.60;;;9.40;;
31910;SDS011;18457;52.432;16.914;2023-03-18T14:08:51;19.80;;;9.70;;
31910;SDS011;18457;52.432;16.914;2023-03-18T14:17:46;15.90;;;9.60;;
31910;SDS011;18457;52.432;16.914;2023-03-18T14:20:24;19.80;;;10.60;;
31910;SDS011;18457;52.432;16.914;2023-03-18T14:26:15;18.30;;;8.90;;
31910;SDS011;18457;52.432;16.914;2023-03-18T14:28:53;20.20;;;10.20;;
31910;SDS011;18457;52.432;16.914;2023-03-18T14:31:33;16.50;;;9.60;;
31910;SDS011;18457;52.432;16.914;2023-03-18T14:34:30;16.20;;;9.00;;
31910;SDS011;18457;52.432;16.914;2023-03-18T14:40:02;17.50;;;9.40;;
31910;SDS011;18457;52.432;16.914;2023-03-18T14:42:44;19.10;;;9.50;;
31910;SDS011;18457;52.432;16.914;2023-03-18T14:45:25;16.90;;;9.50;;
31910;SDS011;18457;52.432;16.914;2023-03-18T14:48:03;27.40;;;11.30;;
31910;SDS011;18457;52.432;16.914;2023-03-18T14:50:43;18.60;;;9.60;;
31910;SDS011;18457;52.432;16.914;2023-03-18T14:53:21;22.50;;;10.90;;
31910;SDS011;18457;52.432;16.914;2023-03-18T14:55:58;18.30;;;9.60;;
31910;SDS011;18457;52.432;16.914;2023-03-18T14:58:33;20.60;;;9.30;;
31910;SDS011;18457;52.432;16.914;2023-03-18T15:01:21;16.70;;;9.90;;
31910;SDS011;18457;52.432;16.914;2023-03-18T15:03:58;23.20;;;9.90;;
31910;SDS011;18457;52.432;16.914;2023-03-18T15:06:31;20.00;;;11.40;;
31910;SDS011;18457;52.432;16.914;2023-03-18T15:09:06;22.20;;;11.30;;
31910;SDS011;18457;52.432;16.914;2023-03-18T15:11:44;16.90;;;9.50;;
31910;SDS011;18457;52.432;16.914;2023-03-18T15:14:19;19.10;;;10.80;;
31910;SDS011;18457;52.432;16.914;2023-03-18T15:16:55;26.40;;;11.40;;
31910;SDS011;18457;52.432;16.914;2023-03-18T15:19:29;20.00;;;10.80;;
31910;SDS011;18457;52.432;16.914;2023-03-18T15:22:01;17.30;;;9.50;;
31910;SDS011;18457;52.432;16.914;2023-03-18T15:24:36;22.90;;;12.10;;
31910;SDS011;18457;52.432;16.914;2023-03-18T15:27:11;20.10;;;10.60;;
31910;SDS011;18457;52.432;16.914;2023-03-18T15:29:49;25.40;;;11.50;;
31910;SDS011;18457;52.432;16.914;2023-03-18T15:32:24;24.40;;;11.50;;
31910;SDS011;18457;52.432;16.914;2023-03-18T15:35:05;19.00;;;10.00;;
31910;SDS011;18457;52.432;16.914;2023-03-18T15:37:45;19.70;;;10.40;;
31910;SDS011;18457;52.432;16.914;2023-03-18T15:40:31;20.30;;;10.40;;
31910;SDS011;18457;52.432;16.914;2023-03-18T15:43:10;20.60;;;10.50;;
31910;SDS011;18457;52.432;16.914;2023-03-18T15:48:31;22.10;;;10.20;;
31910;SDS011;18457;52.432;16.914;2023-03-18T15:51:06;21.10;;;9.90;;
31910;SDS011;18457;52.432;16.914;2023-03-18T15:53:56;23.40;;;11.60;;